Create Tblcommutelog Verified Points Advance Search
| # | Trip ID | Id Commuter | Trip Date | Trip Num | Current Lat | Current Lng | Delta Distance | Current Time | Activity | Activity Confidence | Current Speed | |
|---|---|---|---|---|---|---|---|---|---|---|---|---|
| 70141 | 250922_785232_6438355_0647 | 785232 | (not set) | (not set) | 38.901387324393 | -77.042664796589 | 8.8334 | 2025-09-22 07:47:06 | on_foot | 100 | 0.50515436265613 | |
| 70142 | 250922_778634_16512833_0711 | 778634 | (not set) | (not set) | 39.307507582746 | -76.615010700944 | 3.5313 | 2025-09-22 07:47:07 | on_foot | 100 | 0.73314438473987 | |
| 70143 | 250922_778634_16512833_0711 | 778634 | (not set) | (not set) | 39.307507582746 | -76.615010700944 | 3.5313 | 2025-09-22 07:47:07 | on_foot | 100 | 0.73314438473987 | |
| 70144 | 250922_788422_16420004_0747 | 788422 | (not set) | (not set) | 39.306927295438 | -76.614840589535 | 0 | 2025-09-22 07:47:07 | unknown | 100 | 0 | |
| 70145 | 250922_788422_16420004_0747 | 788422 | (not set) | (not set) | 39.306927295438 | -76.614840589535 | 0 | 2025-09-22 07:47:07 | unknown | 100 | 0 | |
| 70146 | 250922_786243_16514529_0744 | 786243 | (not set) | (not set) | 39.416555 | -76.6144655 | 0.5302 | 2025-09-22 07:47:09 | in_vehicle | 100 | 7.0408683290567 | |
| 70147 | 250922_785147_16514010_0719 | 785147 | (not set) | (not set) | 38.988594171629 | -77.859412941579 | 20.7155 | 2025-09-22 07:47:09 | in_vehicle | 100 | 9.2447718758661 | |
| 70148 | 250922_789037_16497608_0734 | 789037 | (not set) | (not set) | 38.982442946871 | -76.625469062098 | 5.1666 | 2025-09-22 07:47:10 | in_vehicle | 100 | 6.6742961366867 | |
| 70149 | 250922_772512_16490104_0726 | 772512 | (not set) | (not set) | 38.969064959852 | -76.851518374046 | 17.6477 | 2025-09-22 07:47:08 | unknown | 100 | 9.615814460826 | |
| 70150 | 250922_772512_16490104_0726 | 772512 | (not set) | (not set) | 38.969064959852 | -76.851518374046 | 17.6477 | 2025-09-22 07:47:08 | unknown | 100 | 9.615814460826 | |
| 70151 | 250922_764454_16507126_0652 | 764454 | (not set) | (not set) | 38.936002363447 | -77.267386068869 | 19.718 | 2025-09-22 07:47:14 | in_vehicle | 100 | 13.008842436543 | |
| 70152 | 250922_787888_16515275_0706 | 787888 | (not set) | (not set) | 38.898207113417 | -77.039583147723 | 5.6296 | 2025-09-22 07:47:14 | on_foot | 100 | 0.85384498466655 | |
| 70153 | 250922_785674_6441454_0704 | 785674 | (not set) | (not set) | 39.136318904796 | -77.210483531335 | 24.1014 | 2025-09-22 07:47:15 | in_vehicle | 100 | 9.285005409175 | |
| 70154 | 250922_785230_16490874_0710 | 785230 | (not set) | (not set) | 38.850505641639 | -76.96133604475 | 19.1925 | 2025-09-22 07:47:14 | in_vehicle | 100 | 4.6447379008825 | |
| 70155 | 250922_785230_16490874_0710 | 785230 | (not set) | (not set) | 38.850505641639 | -76.96133604475 | 19.1925 | 2025-09-22 07:47:14 | in_vehicle | 100 | 4.6447379008825 | |
| 70156 | 250922_784252_16652453_0710 | 784252 | (not set) | (not set) | 39.282999250175 | -76.875680045532 | 36.6132 | 2025-09-22 07:47:16 | in_vehicle | 100 | 2.9683406796785 | |
| 70157 | 250922_781457_16513328_0708 | 781457 | (not set) | (not set) | 38.892809012728 | -77.053918563973 | 24.5573 | 2025-09-22 07:47:16 | in_vehicle | 100 | 5.6416354484251 | |
| 70158 | 250922_780810_6461772_0716 | 780810 | (not set) | (not set) | 38.969700586041 | -77.102293307438 | 5.7451 | 2025-09-22 07:47:16 | on_bicycle | 100 | 3.4332615090257 | |
| 70159 | 250922_780810_6461772_0716 | 780810 | (not set) | (not set) | 38.969700586041 | -77.102293307438 | 5.7451 | 2025-09-22 07:47:16 | on_bicycle | 100 | 3.4332615090257 | |
| 70160 | 250922_784252_16652453_0710 | 784252 | (not set) | (not set) | 39.282956364297 | -76.875604621478 | 36.6182 | 2025-09-22 07:47:17 | in_vehicle | 100 | 3.5360805385929 |